sensor_id;sensor_type;location;lat;lon;timestamp;pressure;altitude;pressure_sealevel;temperature;humidity
59272;BME280;45043;51.068;7.026;2022-07-21T00:01:58;100640.66;;;16.77;61.99
59272;BME280;45043;51.068;7.026;2022-07-21T00:04:59;100644.88;;;16.73;62.75
59272;BME280;45043;51.068;7.026;2022-07-21T00:08:01;100643.00;;;16.73;62.10
59272;BME280;45043;51.068;7.026;2022-07-21T00:11:05;100643.81;;;16.74;62.01
59272;BME280;45043;51.068;7.026;2022-07-21T00:14:08;100641.13;;;16.74;62.15
59272;BME280;45043;51.068;7.026;2022-07-21T00:17:10;100636.34;;;16.76;61.60
59272;BME280;45043;51.068;7.026;2022-07-21T00:20:12;100650.34;;;16.78;62.02
59272;BME280;45043;51.068;7.026;2022-07-21T00:23:14;100656.88;;;16.82;62.01
59272;BME280;45043;51.068;7.026;2022-07-21T00:26:14;100658.97;;;16.80;61.82
59272;BME280;45043;51.068;7.026;2022-07-21T00:29:16;100665.53;;;16.84;61.73
59272;BME280;45043;51.068;7.026;2022-07-21T00:32:17;100667.50;;;16.89;61.69
59272;BME280;45043;51.068;7.026;2022-07-21T00:35:18;100660.81;;;16.91;62.14
59272;BME280;45043;51.068;7.026;2022-07-21T00:38:19;100641.81;;;16.93;62.09
59272;BME280;45043;51.068;7.026;2022-07-21T00:41:21;100668.31;;;16.89;61.95
59272;BME280;45043;51.068;7.026;2022-07-21T00:44:25;100682.28;;;16.91;62.73
59272;BME280;45043;51.068;7.026;2022-07-21T00:47:29;100669.13;;;16.90;62.86
59272;BME280;45043;51.068;7.026;2022-07-21T00:50:32;100684.97;;;16.91;63.26
59272;BME280;45043;51.068;7.026;2022-07-21T00:53:34;100678.56;;;16.92;63.39
59272;BME280;45043;51.068;7.026;2022-07-21T00:56:36;100685.31;;;16.95;63.57
59272;BME280;45043;51.068;7.026;2022-07-21T00:59:38;100683.94;;;16.92;64.20
59272;BME280;45043;51.068;7.026;2022-07-21T01:02:40;100696.75;;;16.90;64.41
59272;BME280;45043;51.068;7.026;2022-07-21T01:05:42;100694.09;;;16.90;64.49
59272;BME280;45043;51.068;7.026;2022-07-21T01:08:43;100684.88;;;16.86;64.43
59272;BME280;45043;51.068;7.026;2022-07-21T01:11:44;100692.81;;;16.81;63.66
59272;BME280;45043;51.068;7.026;2022-07-21T01:14:45;100685.22;;;16.78;64.08
59272;BME280;45043;51.068;7.026;2022-07-21T01:17:47;100680.22;;;16.70;63.95
59272;BME280;45043;51.068;7.026;2022-07-21T01:20:52;100683.69;;;16.59;64.00
59272;BME280;45043;51.068;7.026;2022-07-21T01:23:53;100701.50;;;16.53;64.82
59272;BME280;45043;51.068;7.026;2022-07-21T01:26:55;100701.16;;;16.49;65.12
59272;BME280;45043;51.068;7.026;2022-07-21T01:29:57;100701.16;;;16.49;65.21
59272;BME280;45043;51.068;7.026;2022-07-21T01:32:57;100700.22;;;16.44;65.73
59272;BME280;45043;51.068;7.026;2022-07-21T01:35:58;100704.28;;;16.46;65.80
59272;BME280;45043;51.068;7.026;2022-07-21T01:38:59;100707.09;;;16.40;66.01
59272;BME280;45043;51.068;7.026;2022-07-21T01:42:19;100698.69;;;16.36;66.06
59272;BME280;45043;51.068;7.026;2022-07-21T01:45:21;100694.13;;;16.37;66.17
59272;BME280;45043;51.068;7.026;2022-07-21T01:48:22;100692.47;;;16.36;66.30
59272;BME280;45043;51.068;7.026;2022-07-21T01:51:23;100703.00;;;16.37;66.38
59272;BME280;45043;51.068;7.026;2022-07-21T01:54:25;100705.88;;;16.36;66.51
59272;BME280;45043;51.068;7.026;2022-07-21T01:57:26;100703.44;;;16.34;66.84
59272;BME280;45043;51.068;7.026;2022-07-21T02:00:27;100696.28;;;16.28;67.21
59272;BME280;45043;51.068;7.026;2022-07-21T02:03:29;100694.44;;;16.29;67.23
59272;BME280;45043;51.068;7.026;2022-07-21T02:06:29;100690.72;;;16.30;67.39
59272;BME280;45043;51.068;7.026;2022-07-21T02:09:31;100691.53;;;16.30;67.14
59272;BME280;45043;51.068;7.026;2022-07-21T02:12:32;100690.25;;;16.33;67.46
59272;BME280;45043;51.068;7.026;2022-07-21T02:15:33;100687.97;;;16.36;66.87
59272;BME280;45043;51.068;7.026;2022-07-21T02:18:35;100688.41;;;16.33;66.97
59272;BME280;45043;51.068;7.026;2022-07-21T02:21:36;100688.84;;;16.30;67.21
59272;BME280;45043;51.068;7.026;2022-07-21T02:24:37;100682.22;;;16.33;66.98
59272;BME280;45043;51.068;7.026;2022-07-21T02:27:44;100695.63;;;16.33;67.19
59272;BME280;45043;51.068;7.026;2022-07-21T02:30:45;100691.53;;;16.30;67.00
59272;BME280;45043;51.068;7.026;2022-07-21T02:33:46;100687.22;;;16.29;67.49
59272;BME280;45043;51.068;7.026;2022-07-21T02:36:47;100682.88;;;16.28;67.62
59272;BME280;45043;51.068;7.026;2022-07-21T02:39:48;100688.72;;;16.25;67.54
59272;BME280;45043;51.068;7.026;2022-07-21T02:42:49;100688.94;;;16.23;67.66
59272;BME280;45043;51.068;7.026;2022-07-21T02:45:50;100688.13;;;16.23;67.63
59272;BME280;45043;51.068;7.026;2022-07-21T02:48:51;100689.75;;;16.24;67.35
59272;BME280;45043;51.068;7.026;2022-07-21T02:51:52;100683.81;;;16.22;67.81
59272;BME280;45043;51.068;7.026;2022-07-21T02:54:53;100673.53;;;16.19;67.74
59272;BME280;45043;51.068;7.026;2022-07-21T02:58:17;100674.44;;;16.13;67.68
59272;BME280;45043;51.068;7.026;2022-07-21T03:01:17;100673.44;;;16.14;67.94
59272;BME280;45043;51.068;7.026;2022-07-21T03:04:19;100669.25;;;16.18;67.98
59272;BME280;45043;51.068;7.026;2022-07-21T03:07:20;100664.91;;;16.17;67.94
59272;BME280;45043;51.068;7.026;2022-07-21T03:10:21;100656.41;;;16.20;67.52
59272;BME280;45043;51.068;7.026;2022-07-21T03:13:22;100658.28;;;16.19;67.40
59272;BME280;45043;51.068;7.026;2022-07-21T03:16:22;100649.88;;;16.16;67.62
59272;BME280;45043;51.068;7.026;2022-07-21T03:19:23;100652.44;;;16.11;67.70
59272;BME280;45043;51.068;7.026;2022-07-21T03:22:24;100655.13;;;16.11;68.25
59272;BME280;45043;51.068;7.026;2022-07-21T03:25:26;100656.75;;;16.12;67.88
59272;BME280;45043;51.068;7.026;2022-07-21T03:28:26;100651.03;;;16.08;68.01
59272;BME280;45043;51.068;7.026;2022-07-21T03:31:27;100651.97;;;16.14;67.97
59272;BME280;45043;51.068;7.026;2022-07-21T03:34:28;100653.47;;;16.10;67.99
59272;BME280;45043;51.068;7.026;2022-07-21T03:37:29;100650.78;;;16.10;67.92
59272;BME280;45043;51.068;7.026;2022-07-21T03:40:34;100650.22;;;16.08;68.23
59272;BME280;45043;51.068;7.026;2022-07-21T03:43:35;100658.13;;;16.02;68.20
59272;BME280;45043;51.068;7.026;2022-07-21T03:46:36;100649.13;;;15.97;68.70
59272;BME280;45043;51.068;7.026;2022-07-21T03:49:37;100647.72;;;15.94;68.56
59272;BME280;45043;51.068;7.026;2022-07-21T03:52:39;100644.09;;;15.89;68.77
59272;BME280;45043;51.068;7.026;2022-07-21T03:55:40;100643.56;;;15.80;68.68
59272;BME280;45043;51.068;7.026;2022-07-21T03:58:41;100644.72;;;15.72;69.28
59272;BME280;45043;51.068;7.026;2022-07-21T04:01:42;100644.13;;;15.70;69.60
59272;BME280;45043;51.068;7.026;2022-07-21T04:04:42;100637.34;;;15.68;69.03
59272;BME280;45043;51.068;7.026;2022-07-21T04:07:49;100643.44;;;15.75;69.38
59272;BME280;45043;51.068;7.026;2022-07-21T04:10:50;100634.22;;;15.71;69.70
59272;BME280;45043;51.068;7.026;2022-07-21T04:13:50;100639.16;;;15.74;69.40
59272;BME280;45043;51.068;7.026;2022-07-21T04:16:51;100629.47;;;15.73;69.22
59272;BME280;45043;51.068;7.026;2022-07-21T04:19:51;100622.47;;;15.72;70.02
59272;BME280;45043;51.068;7.026;2022-07-21T04:22:52;100636.81;;;15.77;69.83
59272;BME280;45043;51.068;7.026;2022-07-21T04:25:53;100631.84;;;15.81;69.70
59272;BME280;45043;51.068;7.026;2022-07-21T04:28:54;100628.84;;;15.89;69.57
59272;BME280;45043;51.068;7.026;2022-07-21T04:31:55;100633.38;;;15.89;69.40
59272;BME280;45043;51.068;7.026;2022-07-21T04:34:56;100633.75;;;15.92;69.42
59272;BME280;45043;51.068;7.026;2022-07-21T04:37:56;100628.94;;;15.94;69.19
59272;BME280;45043;51.068;7.026;2022-07-21T04:40:57;100641.19;;;16.02;69.65
59272;BME280;45043;51.068;7.026;2022-07-21T04:43:57;100639.13;;;16.04;69.47
59272;BME280;45043;51.068;7.026;2022-07-21T04:47:00;100640.41;;;16.01;69.48
59272;BME280;45043;51.068;7.026;2022-07-21T04:50:01;100645.38;;;15.98;69.73
59272;BME280;45043;51.068;7.026;2022-07-21T04:53:02;100649.03;;;16.03;69.63
59272;BME280;45043;51.068;7.026;2022-07-21T04:56:03;100651.03;;;16.08;69.20
59272;BME280;45043;51.068;7.026;2022-07-21T04:59:04;100657.19;;;16.09;69.31
59272;BME280;45043;51.068;7.026;2022-07-21T05:02:05;100662.78;;;16.07;69.80
59272;BME280;45043;51.068;7.026;2022-07-21T05:05:07;100663.97;;;16.11;69.17
59272;BME280;45043;51.068;7.026;2022-07-21T05:08:08;100668.97;;;16.08;69.32
59272;BME280;45043;51.068;7.026;2022-07-21T05:11:08;100663.38;;;16.09;69.44
59272;BME280;45043;51.068;7.026;2022-07-21T05:14:09;100675.63;;;16.17;69.37
59272;BME280;45043;51.068;7.026;2022-07-21T05:17:10;100676.22;;;16.19;69.19
59272;BME280;45043;51.068;7.026;2022-07-21T05:20:11;100674.25;;;16.14;69.40
59272;BME280;45043;51.068;7.026;2022-07-21T05:23:12;100674.00;;;16.16;69.36
59272;BME280;45043;51.068;7.026;2022-07-21T05:26:13;100673.53;;;16.19;69.81
59272;BME280;45043;51.068;7.026;2022-07-21T05:29:14;100679.38;;;16.27;69.55
59272;BME280;45043;51.068;7.026;2022-07-21T05:32:15;100679.31;;;16.34;69.43
59272;BME280;45043;51.068;7.026;2022-07-21T05:35:16;100673.06;;;16.40;69.58
59272;BME280;45043;51.068;7.026;2022-07-21T05:38:17;100681.44;;;16.44;69.53
59272;BME280;45043;51.068;7.026;2022-07-21T05:41:17;100675.63;;;16.47;68.92
59272;BME280;45043;51.068;7.026;2022-07-21T05:44:18;100683.91;;;16.45;69.29
59272;BME280;45043;51.068;7.026;2022-07-21T05:47:18;100686.00;;;16.43;68.92
59272;BME280;45043;51.068;7.026;2022-07-21T05:50:19;100674.22;;;16.44;69.44
59272;BME280;45043;51.068;7.026;2022-07-21T05:53:20;100675.16;;;16.50;69.10
59272;BME280;45043;51.068;7.026;2022-07-21T05:56:22;100665.22;;;16.50;68.62
59272;BME280;45043;51.068;7.026;2022-07-21T05:59:23;100665.72;;;16.47;68.94
59272;BME280;45043;51.068;7.026;2022-07-21T06:02:25;100681.31;;;16.50;68.84
59272;BME280;45043;51.068;7.026;2022-07-21T06:05:26;100673.88;;;16.53;68.22
59272;BME280;45043;51.068;7.026;2022-07-21T06:08:26;100676.66;;;16.58;68.47
59272;BME280;45043;51.068;7.026;2022-07-21T06:11:27;100682.19;;;16.63;67.98
59272;BME280;45043;51.068;7.026;2022-07-21T06:14:27;100686.03;;;16.67;67.89
59272;BME280;45043;51.068;7.026;2022-07-21T06:17:29;100698.84;;;16.65;67.33
59272;BME280;45043;51.068;7.026;2022-07-21T06:20:31;100689.78;;;16.66;67.33
59272;BME280;45043;51.068;7.026;2022-07-21T06:23:32;100695.84;;;16.73;67.51
59272;BME280;45043;51.068;7.026;2022-07-21T06:26:33;100702.38;;;16.77;67.35
59272;BME280;45043;51.068;7.026;2022-07-21T06:29:34;100702.38;;;16.77;66.63
59272;BME280;45043;51.068;7.026;2022-07-21T06:32:35;100694.31;;;16.77;66.71
59272;BME280;45043;51.068;7.026;2022-07-21T06:35:36;100682.88;;;16.82;65.84
59272;BME280;45043;51.068;7.026;2022-07-21T06:38:37;100676.25;;;16.84;66.35
59272;BME280;45043;51.068;7.026;2022-07-21T06:41:38;100678.78;;;16.91;65.81
59272;BME280;45043;51.068;7.026;2022-07-21T06:44:46;100669.81;;;16.85;65.47
59272;BME280;45043;51.068;7.026;2022-07-21T06:47:47;100682.78;;;16.88;65.99
59272;BME280;45043;51.068;7.026;2022-07-21T06:50:48;100678.78;;;16.91;65.72
59272;BME280;45043;51.068;7.026;2022-07-21T06:53:48;100683.47;;;16.95;65.79
59272;BME280;45043;51.068;7.026;2022-07-21T06:56:50;100691.28;;;16.97;65.79
59272;BME280;45043;51.068;7.026;2022-07-21T06:59:53;100688.84;;;17.07;65.62
59272;BME280;45043;51.068;7.026;2022-07-21T07:02:54;100692.44;;;17.25;65.63
59272;BME280;45043;51.068;7.026;2022-07-21T07:05:58;100693.38;;;17.42;65.15
59272;BME280;45043;51.068;7.026;2022-07-21T07:08:58;100695.91;;;17.60;65.27
59272;BME280;45043;51.068;7.026;2022-07-21T07:12:00;100695.38;;;17.75;64.56
59272;BME280;45043;51.068;7.026;2022-07-21T07:15:04;100693.38;;;17.82;63.81
59272;BME280;45043;51.068;7.026;2022-07-21T07:18:14;100692.09;;;17.85;62.83
59272;BME280;45043;51.068;7.026;2022-07-21T07:21:15;100691.44;;;18.06;62.77
59272;BME280;45043;51.068;7.026;2022-07-21T07:24:16;100696.09;;;18.11;62.13
59272;BME280;45043;51.068;7.026;2022-07-21T07:27:17;100695.13;;;18.17;61.16
59272;BME280;45043;51.068;7.026;2022-07-21T07:30:18;100701.97;;;18.25;61.40
59272;BME280;45043;51.068;7.026;2022-07-21T07:33:19;100696.56;;;18.36;60.80
59272;BME280;45043;51.068;7.026;2022-07-21T07:36:20;100698.44;;;18.53;59.68
59272;BME280;45043;51.068;7.026;2022-07-21T07:39:21;100686.69;;;18.59;60.47
59272;BME280;45043;51.068;7.026;2022-07-21T07:42:21;100676.09;;;18.69;59.73
59272;BME280;45043;51.068;7.026;2022-07-21T07:45:22;100672.94;;;18.72;58.64
59272;BME280;45043;51.068;7.026;2022-07-21T07:48:23;100685.41;;;18.78;58.79
59272;BME280;45043;51.068;7.026;2022-07-21T07:51:23;100685.63;;;18.94;59.53
59272;BME280;45043;51.068;7.026;2022-07-21T07:54:24;100687.66;;;19.03;58.39
59272;BME280;45043;51.068;7.026;2022-07-21T07:57:24;100681.91;;;19.17;58.64
59272;BME280;45043;51.068;7.026;2022-07-21T08:00:25;100684.81;;;19.32;56.91
59272;BME280;45043;51.068;7.026;2022-07-21T08:03:26;100674.50;;;19.46;56.08
59272;BME280;45043;51.068;7.026;2022-07-21T08:06:27;100680.03;;;19.56;54.81
59272;BME280;45043;51.068;7.026;2022-07-21T08:09:27;100665.78;;;19.60;55.29
59272;BME280;45043;51.068;7.026;2022-07-21T08:12:28;100675.81;;;19.65;54.40
59272;BME280;45043;51.068;7.026;2022-07-21T08:15:29;100674.22;;;19.69;53.71
59272;BME280;45043;51.068;7.026;2022-07-21T08:18:30;100675.47;;;19.83;55.12
59272;BME280;45043;51.068;7.026;2022-07-21T08:21:30;100674.50;;;19.95;53.45
59272;BME280;45043;51.068;7.026;2022-07-21T08:24:32;100679.38;;;19.93;53.69
59272;BME280;45043;51.068;7.026;2022-07-21T08:27:33;100683.19;;;19.97;53.91
59272;BME280;45043;51.068;7.026;2022-07-21T08:30:33;100686.69;;;19.97;53.76
59272;BME280;45043;51.068;7.026;2022-07-21T08:33:34;100687.81;;;20.01;53.28
59272;BME280;45043;51.068;7.026;2022-07-21T08:36:34;100685.41;;;20.05;54.11
59272;BME280;45043;51.068;7.026;2022-07-21T08:39:35;100681.41;;;20.07;52.10
59272;BME280;45043;51.068;7.026;2022-07-21T08:42:36;100691.31;;;20.02;53.15
59272;BME280;45043;51.068;7.026;2022-07-21T08:45:37;100683.81;;;20.09;53.48
59272;BME280;45043;51.068;7.026;2022-07-21T08:48:39;100692.53;;;20.11;53.01
59272;BME280;45043;51.068;7.026;2022-07-21T08:51:39;100680.94;;;20.10;52.36
59272;BME280;45043;51.068;7.026;2022-07-21T08:54:40;100685.28;;;20.17;52.20
59272;BME280;45043;51.068;7.026;2022-07-21T08:57:41;100691.88;;;20.31;51.28
59272;BME280;45043;51.068;7.026;2022-07-21T09:00:45;100683.41;;;20.49;50.05
59272;BME280;45043;51.068;7.026;2022-07-21T09:03:46;100686.44;;;20.58;50.39
59272;BME280;45043;51.068;7.026;2022-07-21T09:06:53;100685.16;;;20.66;50.28
59272;BME280;45043;51.068;7.026;2022-07-21T09:10:00;100682.22;;;20.72;50.38
59272;BME280;45043;51.068;7.026;2022-07-21T09:13:05;100691.53;;;20.81;50.80
59272;BME280;45043;51.068;7.026;2022-07-21T09:16:06;100690.38;;;20.77;50.21
59272;BME280;45043;51.068;7.026;2022-07-21T09:19:16;100676.63;;;20.79;50.24
59272;BME280;45043;51.068;7.026;2022-07-21T09:22:18;100668.94;;;20.98;49.44
59272;BME280;45043;51.068;7.026;2022-07-21T09:25:33;100678.19;;;21.07;48.68
59272;BME280;45043;51.068;7.026;2022-07-21T09:28:37;100679.84;;;21.18;47.95
59272;BME280;45043;51.068;7.026;2022-07-21T09:31:38;100680.47;;;21.36;47.22
59272;BME280;45043;51.068;7.026;2022-07-21T09:34:38;100673.00;;;21.58;46.63
59272;BME280;45043;51.068;7.026;2022-07-21T09:37:39;100671.91;;;21.54;45.81
59272;BME280;45043;51.068;7.026;2022-07-21T09:40:46;100668.59;;;21.42;45.85
59272;BME280;45043;51.068;7.026;2022-07-21T09:43:55;100675.56;;;21.22;46.03
59272;BME280;45043;51.068;7.026;2022-07-21T09:47:10;100686.28;;;21.12;46.22
59272;BME280;45043;51.068;7.026;2022-07-21T09:50:15;100681.78;;;21.28;45.86
59272;BME280;45043;51.068;7.026;2022-07-21T09:53:17;100682.34;;;21.30;45.04
59272;BME280;45043;51.068;7.026;2022-07-21T09:56:18;100694.69;;;21.11;44.97
59272;BME280;45043;51.068;7.026;2022-07-21T09:59:20;100677.59;;;21.00;44.30
59272;BME280;45043;51.068;7.026;2022-07-21T10:05:24;100696.44;;;20.95;43.58
59272;BME280;45043;51.068;7.026;2022-07-21T10:08:25;100699.41;;;20.93;44.06
59272;BME280;45043;51.068;7.026;2022-07-21T10:11:26;100701.41;;;21.08;43.94
59272;BME280;45043;51.068;7.026;2022-07-21T10:14:27;100698.50;;;21.20;43.87
59272;BME280;45043;51.068;7.026;2022-07-21T10:17:29;100697.69;;;21.24;43.69
59272;BME280;45043;51.068;7.026;2022-07-21T10:20:32;100697.75;;;21.29;43.23
59272;BME280;45043;51.068;7.026;2022-07-21T10:23:38;100696.38;;;21.32;43.35
59272;BME280;45043;51.068;7.026;2022-07-21T10:27:08;100696.59;;;21.20;43.68
59272;BME280;45043;51.068;7.026;2022-07-21T10:30:09;100706.31;;;21.16;43.37
59272;BME280;45043;51.068;7.026;2022-07-21T10:33:11;100694.13;;;21.14;43.45
59272;BME280;45043;51.068;7.026;2022-07-21T10:39:30;100701.66;;;21.06;43.76
59272;BME280;45043;51.068;7.026;2022-07-21T10:42:31;100702.50;;;21.07;44.57
59272;BME280;45043;51.068;7.026;2022-07-21T10:45:37;100709.19;;;20.99;44.60
59272;BME280;45043;51.068;7.026;2022-07-21T10:51:45;100717.28;;;20.67;44.34
59272;BME280;45043;51.068;7.026;2022-07-21T10:55:15;100707.41;;;20.46;44.92
59272;BME280;45043;51.068;7.026;2022-07-21T11:01:23;100721.72;;;20.19;46.48
59272;BME280;45043;51.068;7.026;2022-07-21T11:04:27;100732.34;;;20.04;47.15
59272;BME280;45043;51.068;7.026;2022-07-21T11:11:18;100739.81;;;19.75;49.90
59272;BME280;45043;51.068;7.026;2022-07-21T11:14:19;100738.44;;;19.72;49.62
59272;BME280;45043;51.068;7.026;2022-07-21T11:17:28;100738.13;;;19.69;50.59
59272;BME280;45043;51.068;7.026;2022-07-21T11:20:29;100740.44;;;19.60;50.98
59272;BME280;45043;51.068;7.026;2022-07-21T11:23:41;100748.97;;;19.52;51.48
59272;BME280;45043;51.068;7.026;2022-07-21T11:26:42;100745.50;;;19.56;52.37
59272;BME280;45043;51.068;7.026;2022-07-21T11:29:45;100741.94;;;19.51;52.59
59272;BME280;45043;51.068;7.026;2022-07-21T11:32:47;100751.25;;;19.43;53.72
59272;BME280;45043;51.068;7.026;2022-07-21T11:35:48;100749.66;;;19.25;54.54
59272;BME280;45043;51.068;7.026;2022-07-21T11:39:06;100751.28;;;19.09;55.08
59272;BME280;45043;51.068;7.026;2022-07-21T11:42:11;100757.34;;;19.00;56.11
59272;BME280;45043;51.068;7.026;2022-07-21T11:45:14;100767.78;;;18.79;56.60
59272;BME280;45043;51.068;7.026;2022-07-21T11:48:14;100762.53;;;18.56;57.44
59272;BME280;45043;51.068;7.026;2022-07-21T11:51:15;100770.13;;;18.30;59.01
59272;BME280;45043;51.068;7.026;2022-07-21T11:54:21;100772.19;;;18.11;59.45
59272;BME280;45043;51.068;7.026;2022-07-21T11:57:23;100759.28;;;17.97;60.48
59272;BME280;45043;51.068;7.026;2022-07-21T12:00:24;100767.69;;;17.77;61.11
59272;BME280;45043;51.068;7.026;2022-07-21T12:03:24;100762.47;;;17.70;61.55
59272;BME280;45043;51.068;7.026;2022-07-21T12:06:25;100769.84;;;17.63;62.19
59272;BME280;45043;51.068;7.026;2022-07-21T12:09:25;100767.50;;;17.66;62.58
59272;BME280;45043;51.068;7.026;2022-07-21T12:12:30;100768.41;;;17.72;62.85
59272;BME280;45043;51.068;7.026;2022-07-21T12:15:36;100766.09;;;17.64;62.71
59272;BME280;45043;51.068;7.026;2022-07-21T12:18:37;100765.50;;;17.62;63.16
59272;BME280;45043;51.068;7.026;2022-07-21T12:21:47;100772.41;;;17.58;63.94
59272;BME280;45043;51.068;7.026;2022-07-21T12:24:51;100763.16;;;17.65;63.88
59272;BME280;45043;51.068;7.026;2022-07-21T12:27:52;100757.44;;;17.62;63.42
59272;BME280;45043;51.068;7.026;2022-07-21T12:30:52;100769.16;;;17.56;63.80
59272;BME280;45043;51.068;7.026;2022-07-21T12:33:55;100771.69;;;17.51;64.00
59272;BME280;45043;51.068;7.026;2022-07-21T12:36:56;100767.16;;;17.39;64.35
59272;BME280;45043;51.068;7.026;2022-07-21T12:40:03;100769.50;;;17.36;64.72
59272;BME280;45043;51.068;7.026;2022-07-21T12:46:18;100771.25;;;17.30;64.91
59272;BME280;45043;51.068;7.026;2022-07-21T12:52:59;100771.38;;;17.35;65.16
59272;BME280;45043;51.068;7.026;2022-07-21T12:56:00;100754.91;;;17.43;64.84
59272;BME280;45043;51.068;7.026;2022-07-21T12:59:01;100767.28;;;17.44;64.91
59272;BME280;45043;51.068;7.026;2022-07-21T13:02:02;100766.13;;;17.40;64.89
59272;BME280;45043;51.068;7.026;2022-07-21T13:05:02;100766.59;;;17.37;65.06
59272;BME280;45043;51.068;7.026;2022-07-21T13:08:03;100762.16;;;17.31;64.92
59272;BME280;45043;51.068;7.026;2022-07-21T13:11:04;100751.88;;;17.28;65.07
59272;BME280;45043;51.068;7.026;2022-07-21T13:14:05;100755.06;;;17.25;65.44
59272;BME280;45043;51.068;7.026;2022-07-21T13:17:06;100749.91;;;17.23;65.43
59272;BME280;45043;51.068;7.026;2022-07-21T13:20:10;100749.53;;;17.20;65.36
59272;BME280;45043;51.068;7.026;2022-07-21T13:23:11;100744.50;;;17.12;65.83
59272;BME280;45043;51.068;7.026;2022-07-21T13:26:12;100748.47;;;17.09;65.56
59272;BME280;45043;51.068;7.026;2022-07-21T13:29:12;100742.38;;;17.02;65.93
59272;BME280;45043;51.068;7.026;2022-07-21T13:32:13;100746.22;;;16.94;65.77
59272;BME280;45043;51.068;7.026;2022-07-21T13:35:14;100751.59;;;16.94;66.09
59272;BME280;45043;51.068;7.026;2022-07-21T13:38:15;100750.31;;;16.85;65.72
59272;BME280;45043;51.068;7.026;2022-07-21T13:41:15;100766.88;;;16.82;66.58
59272;BME280;45043;51.068;7.026;2022-07-21T13:44:21;100772.69;;;16.67;66.87
59272;BME280;45043;51.068;7.026;2022-07-21T13:47:22;100776.56;;;16.41;66.75
59272;BME280;45043;51.068;7.026;2022-07-21T13:50:23;100783.19;;;16.39;67.26
59272;BME280;45043;51.068;7.026;2022-07-21T13:53:23;100777.31;;;16.30;66.85
59272;BME280;45043;51.068;7.026;2022-07-21T13:56:24;100780.31;;;16.22;67.29
59272;BME280;45043;51.068;7.026;2022-07-21T13:59:24;100773.97;;;16.16;67.51
59272;BME280;45043;51.068;7.026;2022-07-21T14:02:24;100781.69;;;16.24;67.09
59272;BME280;45043;51.068;7.026;2022-07-21T14:05:25;100772.84;;;16.24;67.54
59272;BME280;45043;51.068;7.026;2022-07-21T14:08:26;100772.84;;;16.24;67.55
59272;BME280;45043;51.068;7.026;2022-07-21T14:11:26;100775.44;;;16.31;67.69
59272;BME280;45043;51.068;7.026;2022-07-21T14:14:28;100778.06;;;16.37;67.74
59272;BME280;45043;51.068;7.026;2022-07-21T14:17:29;100775.97;;;16.39;67.48
59272;BME280;45043;51.068;7.026;2022-07-21T14:20:29;100775.50;;;16.42;67.70
59272;BME280;45043;51.068;7.026;2022-07-21T14:23:30;100775.66;;;16.47;67.72
59272;BME280;45043;51.068;7.026;2022-07-21T14:26:30;100783.22;;;16.50;67.56
59272;BME280;45043;51.068;7.026;2022-07-21T14:29:31;100784.88;;;16.52;67.50
59272;BME280;45043;51.068;7.026;2022-07-21T14:32:33;100789.44;;;16.51;67.45
59272;BME280;45043;51.068;7.026;2022-07-21T14:35:35;100793.63;;;16.47;67.23
59272;BME280;45043;51.068;7.026;2022-07-21T14:38:39;100794.88;;;16.44;67.81
59272;BME280;45043;51.068;7.026;2022-07-21T14:41:40;100798.63;;;16.43;67.43
59272;BME280;45043;51.068;7.026;2022-07-21T14:44:41;100799.81;;;16.29;67.69
59272;BME280;45043;51.068;7.026;2022-07-21T14:47:41;100810.25;;;16.19;67.66
59272;BME280;45043;51.068;7.026;2022-07-21T14:50:42;100809.75;;;16.10;67.41
59272;BME280;45043;51.068;7.026;2022-07-21T14:53:42;100820.63;;;15.97;67.66
59272;BME280;45043;51.068;7.026;2022-07-21T14:56:43;100812.06;;;15.88;67.59
59272;BME280;45043;51.068;7.026;2022-07-21T14:59:46;100819.06;;;15.89;67.34
59272;BME280;45043;51.068;7.026;2022-07-21T15:02:46;100806.34;;;15.85;67.45
59272;BME280;45043;51.068;7.026;2022-07-21T15:05:47;100802.22;;;15.82;67.21
59272;BME280;45043;51.068;7.026;2022-07-21T15:08:47;100799.31;;;15.84;67.34
59272;BME280;45043;51.068;7.026;2022-07-21T15:11:48;100810.34;;;15.94;67.93
59272;BME280;45043;51.068;7.026;2022-07-21T15:14:48;100807.44;;;15.95;68.15
59272;BME280;45043;51.068;7.026;2022-07-21T15:17:48;100802.34;;;16.06;67.66
59272;BME280;45043;51.068;7.026;2022-07-21T15:20:49;100807.28;;;16.09;67.98
59272;BME280;45043;51.068;7.026;2022-07-21T15:23:49;100811.13;;;16.13;67.81
59272;BME280;45043;51.068;7.026;2022-07-21T15:26:50;100804.84;;;16.07;68.38
59272;BME280;45043;51.068;7.026;2022-07-21T15:29:51;100804.59;;;16.09;67.87
59272;BME280;45043;51.068;7.026;2022-07-21T15:32:51;100796.09;;;16.12;67.52
59272;BME280;45043;51.068;7.026;2022-07-21T15:35:52;100788.06;;;16.12;67.01
59272;BME280;45043;51.068;7.026;2022-07-21T15:38:54;100794.16;;;16.19;67.60
59272;BME280;45043;51.068;7.026;2022-07-21T15:41:54;100800.78;;;16.16;66.92
59272;BME280;45043;51.068;7.026;2022-07-21T15:44:55;100793.56;;;16.17;67.44
59272;BME280;45043;51.068;7.026;2022-07-21T15:47:55;100785.31;;;16.18;67.06
59272;BME280;45043;51.068;7.026;2022-07-21T15:50:56;100792.97;;;16.15;67.05
59272;BME280;45043;51.068;7.026;2022-07-21T15:53:56;100796.72;;;16.14;67.33
59272;BME280;45043;51.068;7.026;2022-07-21T15:56:57;100790.31;;;16.15;67.37
59272;BME280;45043;51.068;7.026;2022-07-21T15:59:58;100795.66;;;16.15;67.44
59272;BME280;45043;51.068;7.026;2022-07-21T16:02:59;100789.69;;;16.13;67.03
59272;BME280;45043;51.068;7.026;2022-07-21T16:05:59;100798.19;;;16.10;67.11
59272;BME280;45043;51.068;7.026;2022-07-21T16:09:00;100793.44;;;16.12;66.90
59272;BME280;45043;51.068;7.026;2022-07-21T16:12:01;100801.47;;;16.12;66.94
59272;BME280;45043;51.068;7.026;2022-07-21T16:15:02;100790.38;;;16.08;66.48